sensor_id;sensor_type;location;lat;lon;timestamp;P1;durP1;ratioP1;P2;durP2;ratioP2
86007;SDS011;76587;41.936;25.550;2024-02-26T00:01:27;14.27;;;7.82;;
86007;SDS011;76587;41.936;25.550;2024-02-26T00:03:53;20.55;;;8.88;;
86007;SDS011;76587;41.936;25.550;2024-02-26T00:06:20;15.20;;;9.65;;
86007;SDS011;76587;41.936;25.550;2024-02-26T00:08:45;16.08;;;8.23;;
86007;SDS011;76587;41.936;25.550;2024-02-26T00:11:11;15.93;;;8.60;;
86007;SDS011;76587;41.936;25.550;2024-02-26T00:13:37;39.97;;;17.25;;
86007;SDS011;76587;41.936;25.550;2024-02-26T00:16:03;58.05;;;26.15;;
86007;SDS011;76587;41.936;25.550;2024-02-26T00:18:29;45.15;;;20.55;;
86007;SDS011;76587;41.936;25.550;2024-02-26T00:20:55;34.17;;;17.70;;
86007;SDS011;76587;41.936;25.550;2024-02-26T00:23:20;28.17;;;11.73;;
86007;SDS011;76587;41.936;25.550;2024-02-26T00:25:46;27.63;;;11.25;;
86007;SDS011;76587;41.936;25.550;2024-02-26T00:28:11;30.55;;;12.05;;
86007;SDS011;76587;41.936;25.550;2024-02-26T00:30:38;23.83;;;11.43;;
86007;SDS011;76587;41.936;25.550;2024-02-26T00:33:04;22.42;;;9.68;;
86007;SDS011;76587;41.936;25.550;2024-02-26T00:35:48;17.00;;;9.65;;
86007;SDS011;76587;41.936;25.550;2024-02-26T00:38:14;21.30;;;10.05;;
86007;SDS011;76587;41.936;25.550;2024-02-26T00:40:39;21.58;;;10.30;;
86007;SDS011;76587;41.936;25.550;2024-02-26T00:43:08;19.55;;;10.98;;
86007;SDS011;76587;41.936;25.550;2024-02-26T00:45:33;21.33;;;10.55;;
86007;SDS011;76587;41.936;25.550;2024-02-26T00:47:59;17.98;;;9.65;;
86007;SDS011;76587;41.936;25.550;2024-02-26T00:50:30;20.60;;;10.18;;
86007;SDS011;76587;41.936;25.550;2024-02-26T00:52:56;20.13;;;8.68;;
86007;SDS011;76587;41.936;25.550;2024-02-26T00:55:22;19.42;;;10.00;;
86007;SDS011;76587;41.936;25.550;2024-02-26T00:57:47;20.08;;;9.68;;
86007;SDS011;76587;41.936;25.550;2024-02-26T01:00:13;20.20;;;10.20;;
86007;SDS011;76587;41.936;25.550;2024-02-26T01:02:39;23.02;;;10.43;;
86007;SDS011;76587;41.936;25.550;2024-02-26T01:05:05;18.85;;;9.57;;
86007;SDS011;76587;41.936;25.550;2024-02-26T01:07:31;19.77;;;10.52;;
86007;SDS011;76587;41.936;25.550;2024-02-26T01:12:26;17.80;;;9.55;;
86007;SDS011;76587;41.936;25.550;2024-02-26T01:14:52;19.63;;;10.30;;
86007;SDS011;76587;41.936;25.550;2024-02-26T01:17:17;21.70;;;9.85;;
86007;SDS011;76587;41.936;25.550;2024-02-26T01:19:42;20.15;;;9.43;;
86007;SDS011;76587;41.936;25.550;2024-02-26T01:22:08;21.55;;;10.68;;
86007;SDS011;76587;41.936;25.550;2024-02-26T01:24:34;13.38;;;8.38;;
86007;SDS011;76587;41.936;25.550;2024-02-26T01:27:00;15.45;;;8.77;;
86007;SDS011;76587;41.936;25.550;2024-02-26T01:29:25;20.85;;;9.55;;
86007;SDS011;76587;41.936;25.550;2024-02-26T01:31:51;20.33;;;9.80;;
86007;SDS011;76587;41.936;25.550;2024-02-26T01:34:16;16.55;;;9.38;;
86007;SDS011;76587;41.936;25.550;2024-02-26T01:36:43;20.48;;;9.15;;
86007;SDS011;76587;41.936;25.550;2024-02-26T01:39:09;16.80;;;8.38;;
86007;SDS011;76587;41.936;25.550;2024-02-26T01:41:38;15.85;;;8.35;;
86007;SDS011;76587;41.936;25.550;2024-02-26T01:44:04;13.93;;;7.72;;
86007;SDS011;76587;41.936;25.550;2024-02-26T01:46:30;21.30;;;8.57;;
86007;SDS011;76587;41.936;25.550;2024-02-26T01:48:58;15.93;;;8.32;;
86007;SDS011;76587;41.936;25.550;2024-02-26T01:51:24;18.75;;;8.00;;
86007;SDS011;76587;41.936;25.550;2024-02-26T01:53:50;15.05;;;8.40;;
86007;SDS011;76587;41.936;25.550;2024-02-26T01:56:16;18.85;;;9.05;;
86007;SDS011;76587;41.936;25.550;2024-02-26T01:58:43;16.15;;;9.00;;
86007;SDS011;76587;41.936;25.550;2024-02-26T02:01:08;16.90;;;8.52;;
86007;SDS011;76587;41.936;25.550;2024-02-26T02:03:34;13.90;;;7.07;;
86007;SDS011;76587;41.936;25.550;2024-02-26T02:06:01;16.13;;;8.40;;
86007;SDS011;76587;41.936;25.550;2024-02-26T02:08:27;17.48;;;9.02;;
86007;SDS011;76587;41.936;25.550;2024-02-26T02:10:53;17.42;;;8.32;;
86007;SDS011;76587;41.936;25.550;2024-02-26T02:13:18;16.30;;;8.40;;
86007;SDS011;76587;41.936;25.550;2024-02-26T02:15:44;20.60;;;8.27;;
86007;SDS011;76587;41.936;25.550;2024-02-26T02:18:09;11.88;;;7.45;;
86007;SDS011;76587;41.936;25.550;2024-02-26T02:20:35;14.35;;;8.88;;
86007;SDS011;76587;41.936;25.550;2024-02-26T02:23:01;12.00;;;7.15;;
86007;SDS011;76587;41.936;25.550;2024-02-26T02:25:27;14.73;;;7.72;;
86007;SDS011;76587;41.936;25.550;2024-02-26T02:27:53;13.95;;;7.93;;
86007;SDS011;76587;41.936;25.550;2024-02-26T02:30:19;14.98;;;7.57;;
86007;SDS011;76587;41.936;25.550;2024-02-26T02:32:46;15.48;;;7.80;;
86007;SDS011;76587;41.936;25.550;2024-02-26T02:35:12;12.75;;;7.55;;
86007;SDS011;76587;41.936;25.550;2024-02-26T02:37:37;15.27;;;8.38;;
86007;SDS011;76587;41.936;25.550;2024-02-26T02:40:03;13.48;;;6.90;;
86007;SDS011;76587;41.936;25.550;2024-02-26T02:42:30;14.95;;;7.70;;
86007;SDS011;76587;41.936;25.550;2024-02-26T02:44:55;14.65;;;8.77;;
86007;SDS011;76587;41.936;25.550;2024-02-26T02:47:21;16.27;;;7.78;;
86007;SDS011;76587;41.936;25.550;2024-02-26T02:49:46;16.80;;;9.27;;
86007;SDS011;76587;41.936;25.550;2024-02-26T02:52:12;26.13;;;11.70;;
86007;SDS011;76587;41.936;25.550;2024-02-26T02:54:37;17.60;;;8.48;;
86007;SDS011;76587;41.936;25.550;2024-02-26T02:57:05;14.38;;;8.57;;
86007;SDS011;76587;41.936;25.550;2024-02-26T02:59:31;17.05;;;9.38;;
86007;SDS011;76587;41.936;25.550;2024-02-26T03:01:56;14.55;;;7.50;;
86007;SDS011;76587;41.936;25.550;2024-02-26T03:04:21;13.48;;;9.07;;
86007;SDS011;76587;41.936;25.550;2024-02-26T03:06:47;20.08;;;8.68;;
86007;SDS011;76587;41.936;25.550;2024-02-26T03:09:12;18.92;;;9.18;;
86007;SDS011;76587;41.936;25.550;2024-02-26T03:11:38;16.15;;;9.50;;
86007;SDS011;76587;41.936;25.550;2024-02-26T03:14:04;14.63;;;7.82;;
86007;SDS011;76587;41.936;25.550;2024-02-26T03:16:31;17.23;;;9.35;;
86007;SDS011;76587;41.936;25.550;2024-02-26T03:18:57;17.90;;;10.48;;
86007;SDS011;76587;41.936;25.550;2024-02-26T03:21:23;22.27;;;10.43;;
86007;SDS011;76587;41.936;25.550;2024-02-26T03:23:49;17.67;;;9.00;;
86007;SDS011;76587;41.936;25.550;2024-02-26T03:26:15;14.18;;;8.13;;
86007;SDS011;76587;41.936;25.550;2024-02-26T03:28:40;14.93;;;8.57;;
86007;SDS011;76587;41.936;25.550;2024-02-26T03:31:06;15.55;;;9.38;;
86007;SDS011;76587;41.936;25.550;2024-02-26T03:33:31;18.92;;;9.95;;
86007;SDS011;76587;41.936;25.550;2024-02-26T03:35:57;17.00;;;9.00;;
86007;SDS011;76587;41.936;25.550;2024-02-26T03:38:22;16.63;;;8.88;;
86007;SDS011;76587;41.936;25.550;2024-02-26T03:40:48;19.23;;;10.05;;
86007;SDS011;76587;41.936;25.550;2024-02-26T03:43:13;16.55;;;8.93;;
86007;SDS011;76587;41.936;25.550;2024-02-26T03:45:39;15.52;;;9.05;;
86007;SDS011;76587;41.936;25.550;2024-02-26T03:48:04;18.30;;;9.48;;
86007;SDS011;76587;41.936;25.550;2024-02-26T03:50:30;22.25;;;10.13;;
86007;SDS011;76587;41.936;25.550;2024-02-26T03:52:56;18.25;;;9.32;;
86007;SDS011;76587;41.936;25.550;2024-02-26T03:55:22;22.70;;;9.95;;
86007;SDS011;76587;41.936;25.550;2024-02-26T03:57:50;19.05;;;11.18;;
86007;SDS011;76587;41.936;25.550;2024-02-26T04:00:19;22.83;;;10.05;;
86007;SDS011;76587;41.936;25.550;2024-02-26T04:02:46;21.88;;;12.55;;
86007;SDS011;76587;41.936;25.550;2024-02-26T04:05:13;23.95;;;10.30;;
86007;SDS011;76587;41.936;25.550;2024-02-26T04:07:39;22.30;;;11.40;;
86007;SDS011;76587;41.936;25.550;2024-02-26T04:10:12;21.83;;;11.77;;
86007;SDS011;76587;41.936;25.550;2024-02-26T04:12:38;18.80;;;10.07;;
86007;SDS011;76587;41.936;25.550;2024-02-26T04:15:05;20.30;;;11.05;;
86007;SDS011;76587;41.936;25.550;2024-02-26T04:17:30;18.90;;;10.52;;
86007;SDS011;76587;41.936;25.550;2024-02-26T04:19:56;18.92;;;10.88;;
86007;SDS011;76587;41.936;25.550;2024-02-26T04:22:21;16.73;;;9.45;;
86007;SDS011;76587;41.936;25.550;2024-02-26T04:24:47;20.95;;;10.40;;
86007;SDS011;76587;41.936;25.550;2024-02-26T04:27:12;17.98;;;10.50;;
86007;SDS011;76587;41.936;25.550;2024-02-26T04:29:38;16.23;;;9.65;;
86007;SDS011;76587;41.936;25.550;2024-02-26T04:32:03;18.83;;;11.35;;
86007;SDS011;76587;41.936;25.550;2024-02-26T04:34:29;15.95;;;8.88;;
86007;SDS011;76587;41.936;25.550;2024-02-26T04:36:55;21.00;;;10.10;;
86007;SDS011;76587;41.936;25.550;2024-02-26T04:39:20;21.42;;;11.48;;
86007;SDS011;76587;41.936;25.550;2024-02-26T04:41:46;20.05;;;10.68;;
86007;SDS011;76587;41.936;25.550;2024-02-26T04:44:11;19.17;;;10.95;;
86007;SDS011;76587;41.936;25.550;2024-02-26T04:46:37;21.38;;;12.48;;
86007;SDS011;76587;41.936;25.550;2024-02-26T04:49:02;24.67;;;12.60;;
86007;SDS011;76587;41.936;25.550;2024-02-26T04:51:27;22.38;;;12.15;;
86007;SDS011;76587;41.936;25.550;2024-02-26T04:53:53;25.25;;;11.13;;
86007;SDS011;76587;41.936;25.550;2024-02-26T04:56:20;23.92;;;13.45;;
86007;SDS011;76587;41.936;25.550;2024-02-26T04:58:46;24.70;;;13.32;;
86007;SDS011;76587;41.936;25.550;2024-02-26T05:01:12;23.85;;;11.85;;
86007;SDS011;76587;41.936;25.550;2024-02-26T05:03:37;23.58;;;12.40;;
86007;SDS011;76587;41.936;25.550;2024-02-26T05:06:03;21.42;;;11.57;;
86007;SDS011;76587;41.936;25.550;2024-02-26T05:08:30;22.15;;;12.80;;
86007;SDS011;76587;41.936;25.550;2024-02-26T05:10:55;25.25;;;13.38;;
86007;SDS011;76587;41.936;25.550;2024-02-26T05:13:21;20.95;;;12.13;;
86007;SDS011;76587;41.936;25.550;2024-02-26T05:15:47;23.30;;;13.65;;
86007;SDS011;76587;41.936;25.550;2024-02-26T05:18:14;24.75;;;15.05;;
86007;SDS011;76587;41.936;25.550;2024-02-26T05:20:40;26.10;;;14.68;;
86007;SDS011;76587;41.936;25.550;2024-02-26T05:23:06;34.45;;;16.27;;
86007;SDS011;76587;41.936;25.550;2024-02-26T05:25:31;28.45;;;13.57;;
86007;SDS011;76587;41.936;25.550;2024-02-26T05:27:57;28.05;;;13.50;;
86007;SDS011;76587;41.936;25.550;2024-02-26T05:30:22;21.00;;;12.55;;
86007;SDS011;76587;41.936;25.550;2024-02-26T05:32:48;21.55;;;13.75;;
86007;SDS011;76587;41.936;25.550;2024-02-26T05:35:13;29.70;;;12.20;;
86007;SDS011;76587;41.936;25.550;2024-02-26T05:37:40;23.02;;;12.75;;
86007;SDS011;76587;41.936;25.550;2024-02-26T05:40:05;18.83;;;10.23;;
86007;SDS011;76587;41.936;25.550;2024-02-26T05:42:31;23.13;;;11.23;;
86007;SDS011;76587;41.936;25.550;2024-02-26T05:44:57;23.58;;;11.60;;
86007;SDS011;76587;41.936;25.550;2024-02-26T05:47:23;19.80;;;12.00;;
86007;SDS011;76587;41.936;25.550;2024-02-26T05:49:48;24.00;;;11.50;;
86007;SDS011;76587;41.936;25.550;2024-02-26T05:52:14;26.75;;;11.10;;
86007;SDS011;76587;41.936;25.550;2024-02-26T05:54:39;22.42;;;11.40;;
86007;SDS011;76587;41.936;25.550;2024-02-26T05:57:05;22.42;;;12.15;;
86007;SDS011;76587;41.936;25.550;2024-02-26T05:59:30;25.15;;;13.00;;
86007;SDS011;76587;41.936;25.550;2024-02-26T06:01:55;22.90;;;12.55;;
86007;SDS011;76587;41.936;25.550;2024-02-26T06:04:21;24.58;;;13.20;;
86007;SDS011;76587;41.936;25.550;2024-02-26T06:06:46;29.15;;;15.90;;
86007;SDS011;76587;41.936;25.550;2024-02-26T06:09:12;27.20;;;15.52;;
86007;SDS011;76587;41.936;25.550;2024-02-26T06:11:37;30.70;;;14.75;;
86007;SDS011;76587;41.936;25.550;2024-02-26T06:14:03;24.98;;;14.13;;
86007;SDS011;76587;41.936;25.550;2024-02-26T06:16:28;22.30;;;13.02;;
86007;SDS011;76587;41.936;25.550;2024-02-26T06:18:54;31.10;;;15.15;;
86007;SDS011;76587;41.936;25.550;2024-02-26T06:21:20;18.58;;;10.57;;
86007;SDS011;76587;41.936;25.550;2024-02-26T06:23:45;20.60;;;10.32;;
86007;SDS011;76587;41.936;25.550;2024-02-26T06:26:10;18.60;;;10.57;;
86007;SDS011;76587;41.936;25.550;2024-02-26T06:28:36;19.02;;;9.98;;
86007;SDS011;76587;41.936;25.550;2024-02-26T06:31:05;18.05;;;9.38;;
86007;SDS011;76587;41.936;25.550;2024-02-26T06:33:31;19.08;;;11.15;;
86007;SDS011;76587;41.936;25.550;2024-02-26T06:35:56;27.33;;;12.70;;
86007;SDS011;76587;41.936;25.550;2024-02-26T06:38:21;21.50;;;11.20;;
86007;SDS011;76587;41.936;25.550;2024-02-26T06:40:47;25.80;;;13.48;;
86007;SDS011;76587;41.936;25.550;2024-02-26T06:43:12;23.33;;;11.50;;
86007;SDS011;76587;41.936;25.550;2024-02-26T06:45:38;23.67;;;13.52;;
86007;SDS011;76587;41.936;25.550;2024-02-26T06:48:03;30.00;;;15.65;;
86007;SDS011;76587;41.936;25.550;2024-02-26T06:50:29;36.90;;;16.63;;
86007;SDS011;76587;41.936;25.550;2024-02-26T06:52:54;26.70;;;14.00;;
86007;SDS011;76587;41.936;25.550;2024-02-26T06:55:20;23.45;;;12.90;;
86007;SDS011;76587;41.936;25.550;2024-02-26T06:57:45;30.20;;;14.52;;
86007;SDS011;76587;41.936;25.550;2024-02-26T07:00:11;30.15;;;14.30;;
86007;SDS011;76587;41.936;25.550;2024-02-26T07:02:41;29.13;;;14.85;;
86007;SDS011;76587;41.936;25.550;2024-02-26T07:05:07;26.83;;;13.52;;
86007;SDS011;76587;41.936;25.550;2024-02-26T07:07:33;35.53;;;15.27;;
86007;SDS011;76587;41.936;25.550;2024-02-26T07:09:59;46.67;;;19.42;;
86007;SDS011;76587;41.936;25.550;2024-02-26T07:12:25;27.48;;;14.15;;
86007;SDS011;76587;41.936;25.550;2024-02-26T07:14:50;33.53;;;14.27;;
86007;SDS011;76587;41.936;25.550;2024-02-26T07:17:17;26.40;;;11.93;;
86007;SDS011;76587;41.936;25.550;2024-02-26T07:19:42;28.40;;;13.77;;
86007;SDS011;76587;41.936;25.550;2024-02-26T07:22:08;26.60;;;14.88;;
86007;SDS011;76587;41.936;25.550;2024-02-26T07:24:33;27.10;;;12.73;;
86007;SDS011;76587;41.936;25.550;2024-02-26T07:26:59;22.80;;;13.20;;
86007;SDS011;76587;41.936;25.550;2024-02-26T07:29:25;22.88;;;12.35;;
86007;SDS011;76587;41.936;25.550;2024-02-26T07:31:50;25.23;;;14.65;;
86007;SDS011;76587;41.936;25.550;2024-02-26T07:34:16;21.58;;;11.50;;
86007;SDS011;76587;41.936;25.550;2024-02-26T07:36:42;29.88;;;12.18;;
86007;SDS011;76587;41.936;25.550;2024-02-26T07:39:07;24.65;;;13.93;;
86007;SDS011;76587;41.936;25.550;2024-02-26T07:41:33;33.30;;;16.42;;
86007;SDS011;76587;41.936;25.550;2024-02-26T07:43:58;26.60;;;15.13;;
86007;SDS011;76587;41.936;25.550;2024-02-26T07:46:24;25.80;;;12.60;;
86007;SDS011;76587;41.936;25.550;2024-02-26T07:48:49;25.25;;;13.75;;
86007;SDS011;76587;41.936;25.550;2024-02-26T07:51:15;18.92;;;11.18;;
86007;SDS011;76587;41.936;25.550;2024-02-26T07:53:40;14.85;;;9.52;;
86007;SDS011;76587;41.936;25.550;2024-02-26T07:56:06;19.33;;;10.68;;
86007;SDS011;76587;41.936;25.550;2024-02-26T07:58:32;16.88;;;11.43;;
86007;SDS011;76587;41.936;25.550;2024-02-26T08:00:58;16.45;;;9.80;;
86007;SDS011;76587;41.936;25.550;2024-02-26T08:03:23;16.98;;;8.50;;
86007;SDS011;76587;41.936;25.550;2024-02-26T08:05:50;14.57;;;8.40;;
86007;SDS011;76587;41.936;25.550;2024-02-26T08:08:16;14.82;;;8.48;;
86007;SDS011;76587;41.936;25.550;2024-02-26T08:10:42;14.05;;;8.38;;
86007;SDS011;76587;41.936;25.550;2024-02-26T08:13:07;15.60;;;9.10;;
86007;SDS011;76587;41.936;25.550;2024-02-26T08:15:33;14.85;;;8.13;;
86007;SDS011;76587;41.936;25.550;2024-02-26T08:18:00;14.82;;;7.65;;
86007;SDS011;76587;41.936;25.550;2024-02-26T08:22:55;14.52;;;8.77;;
86007;SDS011;76587;41.936;25.550;2024-02-26T08:25:21;15.48;;;8.70;;
86007;SDS011;76587;41.936;25.550;2024-02-26T08:27:46;15.18;;;9.13;;
86007;SDS011;76587;41.936;25.550;2024-02-26T08:30:13;22.20;;;10.98;;
86007;SDS011;76587;41.936;25.550;2024-02-26T08:35:07;17.10;;;9.02;;
86007;SDS011;76587;41.936;25.550;2024-02-26T08:37:33;16.98;;;8.45;;
86007;SDS011;76587;41.936;25.550;2024-02-26T08:39:58;20.42;;;10.02;;
86007;SDS011;76587;41.936;25.550;2024-02-26T08:42:24;13.77;;;7.97;;
86007;SDS011;76587;41.936;25.550;2024-02-26T08:44:49;16.90;;;9.95;;
86007;SDS011;76587;41.936;25.550;2024-02-26T08:47:15;18.38;;;9.38;;
86007;SDS011;76587;41.936;25.550;2024-02-26T08:49:44;20.60;;;10.23;;
86007;SDS011;76587;41.936;25.550;2024-02-26T08:52:10;15.38;;;8.45;;
86007;SDS011;76587;41.936;25.550;2024-02-26T08:54:36;15.35;;;8.90;;
86007;SDS011;76587;41.936;25.550;2024-02-26T08:57:02;21.83;;;9.27;;
86007;SDS011;76587;41.936;25.550;2024-02-26T08:59:27;18.92;;;10.90;;
86007;SDS011;76587;41.936;25.550;2024-02-26T09:01:53;15.80;;;9.05;;
86007;SDS011;76587;41.936;25.550;2024-02-26T09:04:18;13.27;;;8.30;;
86007;SDS011;76587;41.936;25.550;2024-02-26T09:06:44;14.00;;;8.57;;
86007;SDS011;76587;41.936;25.550;2024-02-26T09:09:10;18.45;;;10.32;;
86007;SDS011;76587;41.936;25.550;2024-02-26T09:11:36;15.60;;;8.15;;
86007;SDS011;76587;41.936;25.550;2024-02-26T09:14:01;14.43;;;8.60;;
86007;SDS011;76587;41.936;25.550;2024-02-26T09:16:28;16.77;;;8.05;;
86007;SDS011;76587;41.936;25.550;2024-02-26T09:18:54;12.40;;;8.40;;
86007;SDS011;76587;41.936;25.550;2024-02-26T09:21:20;11.00;;;7.90;;
86007;SDS011;76587;41.936;25.550;2024-02-26T09:23:49;13.80;;;8.70;;
86007;SDS011;76587;41.936;25.550;2024-02-26T09:26:15;16.15;;;7.78;;
86007;SDS011;76587;41.936;25.550;2024-02-26T09:28:40;23.20;;;11.35;;
86007;SDS011;76587;41.936;25.550;2024-02-26T09:31:05;12.02;;;7.78;;
86007;SDS011;76587;41.936;25.550;2024-02-26T09:33:32;17.60;;;8.75;;
86007;SDS011;76587;41.936;25.550;2024-02-26T09:35:57;11.70;;;7.05;;
86007;SDS011;76587;41.936;25.550;2024-02-26T09:38:23;13.05;;;7.15;;
86007;SDS011;76587;41.936;25.550;2024-02-26T09:40:49;15.75;;;8.38;;
86007;SDS011;76587;41.936;25.550;2024-02-26T09:43:15;15.35;;;8.40;;
86007;SDS011;76587;41.936;25.550;2024-02-26T09:45:46;12.45;;;7.40;;
86007;SDS011;76587;41.936;25.550;2024-02-26T09:48:12;12.13;;;7.40;;
86007;SDS011;76587;41.936;25.550;2024-02-26T09:50:41;19.58;;;7.95;;
86007;SDS011;76587;41.936;25.550;2024-02-26T09:53:08;13.90;;;7.57;;
86007;SDS011;76587;41.936;25.550;2024-02-26T09:55:35;14.75;;;7.15;;
86007;SDS011;76587;41.936;25.550;2024-02-26T09:58:01;14.55;;;6.35;;
86007;SDS011;76587;41.936;25.550;2024-02-26T10:00:28;15.32;;;7.30;;
86007;SDS011;76587;41.936;25.550;2024-02-26T10:02:58;10.68;;;5.95;;
86007;SDS011;76587;41.936;25.550;2024-02-26T10:05:31;10.95;;;6.90;;
86007;SDS011;76587;41.936;25.550;2024-02-26T10:07:58;15.30;;;10.80;;
86007;SDS011;76587;41.936;25.550;2024-02-26T10:10:27;13.57;;;7.63;;
86007;SDS011;76587;41.936;25.550;2024-02-26T10:12:54;15.02;;;7.47;;
86007;SDS011;76587;41.936;25.550;2024-02-26T10:15:19;12.15;;;7.20;;
86007;SDS011;76587;41.936;25.550;2024-02-26T10:17:45;11.57;;;6.95;;
86007;SDS011;76587;41.936;25.550;2024-02-26T10:20:14;12.85;;;6.85;;
86007;SDS011;76587;41.936;25.550;2024-02-26T10:22:41;20.25;;;8.50;;
86007;SDS011;76587;41.936;25.550;2024-02-26T10:25:07;11.70;;;6.88;;
86007;SDS011;76587;41.936;25.550;2024-02-26T10:27:33;15.07;;;6.65;;
86007;SDS011;76587;41.936;25.550;2024-02-26T10:30:02;9.55;;;6.28;;
86007;SDS011;76587;41.936;25.550;2024-02-26T10:32:49;11.10;;;5.97;;
86007;SDS011;76587;41.936;25.550;2024-02-26T10:35:18;9.77;;;6.05;;
86007;SDS011;76587;41.936;25.550;2024-02-26T10:37:45;14.57;;;6.65;;
86007;SDS011;76587;41.936;25.550;2024-02-26T10:40:12;13.27;;;6.65;;
86007;SDS011;76587;41.936;25.550;2024-02-26T10:42:38;14.57;;;10.00;;
86007;SDS011;76587;41.936;25.550;2024-02-26T10:45:05;8.93;;;5.25;;
86007;SDS011;76587;41.936;25.550;2024-02-26T10:47:31;10.15;;;6.47;;
86007;SDS011;76587;41.936;25.550;2024-02-26T10:49:58;10.82;;;6.35;;
86007;SDS011;76587;41.936;25.550;2024-02-26T10:52:24;14.45;;;6.55;;
86007;SDS011;76587;41.936;25.550;2024-02-26T10:54:51;11.57;;;5.78;;
86007;SDS011;76587;41.936;25.550;2024-02-26T10:57:19;9.98;;;6.68;;
86007;SDS011;76587;41.936;25.550;2024-02-26T10:59:46;16.35;;;7.18;;
86007;SDS011;76587;41.936;25.550;2024-02-26T11:02:13;15.27;;;6.22;;
86007;SDS011;76587;41.936;25.550;2024-02-26T11:04:39;13.43;;;7.40;;
86007;SDS011;76587;41.936;25.550;2024-02-26T11:07:04;19.85;;;7.97;;
86007;SDS011;76587;41.936;25.550;2024-02-26T11:09:31;9.80;;;5.32;;
86007;SDS011;76587;41.936;25.550;2024-02-26T11:11:57;12.45;;;6.13;;
86007;SDS011;76587;41.936;25.550;2024-02-26T11:14:24;7.78;;;4.70;;
86007;SDS011;76587;41.936;25.550;2024-02-26T11:16:51;10.15;;;5.72;;
86007;SDS011;76587;41.936;25.550;2024-02-26T11:19:17;12.90;;;5.40;;
86007;SDS011;76587;41.936;25.550;2024-02-26T11:21:44;9.70;;;4.93;;
86007;SDS011;76587;41.936;25.550;2024-02-26T11:24:11;8.52;;;5.40;;
86007;SDS011;76587;41.936;25.550;2024-02-26T11:26:42;10.80;;;5.78;;
86007;SDS011;76587;41.936;25.550;2024-02-26T11:29:14;15.27;;;5.88;;
86007;SDS011;76587;41.936;25.550;2024-02-26T11:31:46;12.02;;;4.40;;
86007;SDS011;76587;41.936;25.550;2024-02-26T11:34:12;16.98;;;5.82;;
86007;SDS011;76587;41.936;25.550;2024-02-26T11:36:38;15.75;;;6.03;;
86007;SDS011;76587;41.936;25.550;2024-02-26T11:39:04;11.13;;;5.20;;
86007;SDS011;76587;41.936;25.550;2024-02-26T11:41:30;12.55;;;5.95;;
86007;SDS011;76587;41.936;25.550;2024-02-26T11:44:02;8.68;;;5.28;;
86007;SDS011;76587;41.936;25.550;2024-02-26T11:46:38;9.65;;;5.28;;
86007;SDS011;76587;41.936;25.550;2024-02-26T11:51:52;8.48;;;4.80;;
86007;SDS011;76587;41.936;25.550;2024-02-26T11:59:55;9.57;;;4.82;;
86007;SDS011;76587;41.936;25.550;2024-02-26T12:05:23;9.65;;;6.05;;
86007;SDS011;76587;41.936;25.550;2024-02-26T12:07:52;9.52;;;4.75;;
86007;SDS011;76587;41.936;25.550;2024-02-26T12:10:30;13.55;;;7.07;;
86007;SDS011;76587;41.936;25.550;2024-02-26T12:15:56;9.90;;;5.22;;
86007;SDS011;76587;41.936;25.550;2024-02-26T12:18:22;12.88;;;5.30;;
86007;SDS011;76587;41.936;25.550;2024-02-26T12:20:58;12.43;;;5.70;;
86007;SDS011;76587;41.936;25.550;2024-02-26T12:23:26;10.93;;;4.85;;
86007;SDS011;76587;41.936;25.550;2024-02-26T12:25:52;10.00;;;5.25;;
86007;SDS011;76587;41.936;25.550;2024-02-26T12:28:17;11.60;;;5.63;;
86007;SDS011;76587;41.936;25.550;2024-02-26T12:30:43;8.93;;;5.35;;
86007;SDS011;76587;41.936;25.550;2024-02-26T12:33:08;8.80;;;4.35;;
86007;SDS011;76587;41.936;25.550;2024-02-26T12:35:34;10.73;;;5.00;;
86007;SDS011;76587;41.936;25.550;2024-02-26T12:38:00;9.10;;;5.40;;
86007;SDS011;76587;41.936;25.550;2024-02-26T12:40:26;9.00;;;4.93;;
86007;SDS011;76587;41.936;25.550;2024-02-26T12:42:53;9.20;;;4.65;;
86007;SDS011;76587;41.936;25.550;2024-02-26T12:45:20;9.43;;;5.22;;
86007;SDS011;76587;41.936;25.550;2024-02-26T12:47:45;10.65;;;4.68;;
86007;SDS011;76587;41.936;25.550;2024-02-26T12:50:11;8.90;;;5.18;;
86007;SDS011;76587;41.936;25.550;2024-02-26T12:52:41;10.55;;;4.95;;
86007;SDS011;76587;41.936;25.550;2024-02-26T12:55:15;9.30;;;4.43;;
86007;SDS011;76587;41.936;25.550;2024-02-26T12:57:43;11.18;;;5.20;;
86007;SDS011;76587;41.936;25.550;2024-02-26T13:00:14;10.35;;;4.95;;
86007;SDS011;76587;41.936;25.550;2024-02-26T13:02:41;10.25;;;6.05;;
86007;SDS011;76587;41.936;25.550;2024-02-26T13:05:11;10.00;;;6.20;;
86007;SDS011;76587;41.936;25.550;2024-02-26T13:07:44;11.80;;;6.25;;
86007;SDS011;76587;41.936;25.550;2024-02-26T13:10:14;12.30;;;7.13;;
86007;SDS011;76587;41.936;25.550;2024-02-26T13:12:46;12.25;;;6.22;;
86007;SDS011;76587;41.936;25.550;2024-02-26T13:15:21;11.43;;;5.55;;
86007;SDS011;76587;41.936;25.550;2024-02-26T13:17:47;10.10;;;5.93;;
86007;SDS011;76587;41.936;25.550;2024-02-26T13:20:24;17.75;;;6.25;;
86007;SDS011;76587;41.936;25.550;2024-02-26T13:23:03;9.63;;;5.50;;
86007;SDS011;76587;41.936;25.550;2024-02-26T13:25:30;11.10;;;6.22;;
86007;SDS011;76587;41.936;25.550;2024-02-26T13:28:09;11.60;;;5.68;;
86007;SDS011;76587;41.936;25.550;2024-02-26T13:30:39;11.23;;;6.38;;
86007;SDS011;76587;41.936;25.550;2024-02-26T13:33:11;12.82;;;7.10;;
86007;SDS011;76587;41.936;25.550;2024-02-26T13:35:37;14.70;;;7.38;;
86007;SDS011;76587;41.936;25.550;2024-02-26T13:38:07;11.10;;;6.65;;
86007;SDS011;76587;41.936;25.550;2024-02-26T13:40:35;11.63;;;6.53;;
86007;SDS011;76587;41.936;25.550;2024-02-26T13:43:00;11.77;;;6.35;;
86007;SDS011;76587;41.936;25.550;2024-02-26T13:45:26;10.32;;;5.63;;
86007;SDS011;76587;41.936;25.550;2024-02-26T13:47:52;12.90;;;6.35;;
86007;SDS011;76587;41.936;25.550;2024-02-26T13:50:18;13.50;;;5.75;;
86007;SDS011;76587;41.936;25.550;2024-02-26T13:52:46;13.27;;;5.70;;
86007;SDS011;76587;41.936;25.550;2024-02-26T13:55:12;9.55;;;5.97;;
86007;SDS011;76587;41.936;25.550;2024-02-26T13:57:39;45.10;;;22.73;;
86007;SDS011;76587;41.936;25.550;2024-02-26T14:00:05;12.77;;;7.15;;
86007;SDS011;76587;41.936;25.550;2024-02-26T14:02:32;12.65;;;6.82;;
86007;SDS011;76587;41.936;25.550;2024-02-26T14:05:01;13.70;;;6.40;;
86007;SDS011;76587;41.936;25.550;2024-02-26T14:07:28;16.30;;;7.50;;
86007;SDS011;76587;41.936;25.550;2024-02-26T14:09:55;11.30;;;5.78;;
86007;SDS011;76587;41.936;25.550;2024-02-26T14:12:20;12.32;;;6.07;;
86007;SDS011;76587;41.936;25.550;2024-02-26T14:14:45;13.13;;;5.68;;
86007;SDS011;76587;41.936;25.550;2024-02-26T14:17:13;16.17;;;5.97;;
86007;SDS011;76587;41.936;25.550;2024-02-26T14:19:40;13.10;;;6.28;;
86007;SDS011;76587;41.936;25.550;2024-02-26T14:22:10;14.88;;;6.05;;
86007;SDS011;76587;41.936;25.550;2024-02-26T14:24:36;15.57;;;5.97;;
86007;SDS011;76587;41.936;25.550;2024-02-26T14:27:01;11.95;;;6.75;;
86007;SDS011;76587;41.936;25.550;2024-02-26T14:29:27;12.70;;;6.50;;
86007;SDS011;76587;41.936;25.550;2024-02-26T14:31:53;11.77;;;5.78;;
86007;SDS011;76587;41.936;25.550;2024-02-26T14:34:18;10.93;;;6.33;;
86007;SDS011;76587;41.936;25.550;2024-02-26T14:36:44;12.32;;;6.18;;